Lehmann Sound — V2EM3 — position and weather

sailwx.info

Track history (hours):
 
Tides and Currents Weather Stations Pressure Air Temp Water Temp Dewpoint Dewpoint Depression Visibility Wind Speed Wind Dir Waves Ship Positions

Lehmann Sound

Last reported at 2014-Nov-19 22:07 UTC. Time now 2014-Nov-23 17:17 UTC.
Position N 50°34' E 000°17'.

Length 90 m; draft 5.9 m.

Type: Cargo ship. MMSI: 305476000.

Date/timePositionNaut miles runAvg speedWind from/ knotsBaromVisibWave heightAir tempDewpointWater temp
2014-Nov-19 22:07N 50°34' E 000°17'810.3
2014-Nov-19 21:20N 50°36' E 000°29'7 9.3
2014-Nov-19 20:33N 50°39' E 000°40'9 9.3
2014-Nov-19 19:33N 50°45' E 000°51'2010.0
2014-Nov-19 17:33N 50°58' E 001°15'1211.9
2014-Nov-19 16:34N 51°06' E 001°29'1111.3
2014-Nov-19 15:33N 51°13' E 001°43'1010.4
2014-Nov-19 14:33N 51°21' E 001°53'9 9.4
2014-Nov-19 13:34N 51°29' E 002°02'9 8.8
2014-Nov-19 12:33N 51°35' E 002°11'12310.0
2014-Nov-19 00:13N 53°09' E 004°23'11 9.7
2014-Nov-18 23:04N 53°19' E 004°31'810.6
2014-Nov-18 22:21N 53°26' E 004°36'810.7
2014-Nov-18 21:33N 53°30' E 004°48'1111.4
2014-Nov-18 20:33N 53°34' E 005°06'1110.7
2014-Nov-18 19:33N 53°38' E 005°23'1010.0
2014-Nov-18 18:33N 53°41' E 005°39'9 9.3
2014-Nov-18 17:33N 53°44' E 005°53'5610.2
2014-Nov-18 12:04N 53°59' E 007°25'611.0
2014-Nov-18 11:33N 54°01' E 007°34'1111.1
2014-Nov-18 10:33N 54°01' E 007°53'1111.1
2014-Nov-18 09:33N 54°00' E 008°12'1010.5
2014-Nov-18 08:33N 53°59' E 008°29'8 8.4
2014-Nov-18 07:33N 53°54' E 008°42'7 7.2
2014-Nov-18 06:33N 53°50' E 008°52'9 8.7
2014-Nov-18 05:33N 53°53' E 009°06'2 2.1
2014-Nov-18 04:33N 53°54' E 009°09'1 1.2
2014-Nov-18 03:32N 53°55' E 009°11'0 0.0
2014-Nov-18 02:32N 53°55' E 009°11'4 3.9
2014-Nov-18 01:33N 53°58' E 009°15'14 6.5
2014-Nov-17 23:21N 54°10' E 009°27'7 8.2
2014-Nov-17 22:33N 54°14' E 009°36'7 7.0
2014-Nov-17 21:33N 54°19' E 009°43'8 7.5
2014-Nov-17 20:33N 54°21' E 009°56'8 7.5
2014-Nov-17 19:33N 54°22' E 010°09'1 1.2
2014-Nov-17 18:33N 54°22' E 010°11'9 9.3
2014-Nov-17 17:33N 54°30' E 010°19'41 9.4
2014-Nov-17 13:15N 54°31' E 011°28'7 9.9
2014-Nov-17 12:33N 54°28' E 011°39'10 9.7
2014-Nov-17 11:33N 54°26' E 011°55'87 9.6
2014-Nov-17 02:31N 55°07' E 014°08'1010.0
2014-Nov-17 01:29N 55°15' E 014°18'1010.2
2014-Nov-17 00:32N 55°23' E 014°28'1010.0
2014-Nov-16 23:33N 55°29' E 014°41'11 9.8
2014-Nov-16 22:27N 55°35' E 014°57'125 9.0
2014-Nov-16 08:32N 57°09' E 017°27'  
2014-Nov-11 07:25N 59°35' E 021°13'8 9.4
2014-Nov-11 06:33N 59°32' E 021°28'9 9.0
2014-Nov-11 05:30N 59°31' E 021°47'9 9.0
2014-Nov-11 04:32N 59°32' E 022°04'33 8.2
2014-Nov-11 00:33N 59°45' E 023°03'6 6.2
2014-Nov-10 23:33N 59°48' E 023°13'7 7.5
2014-Nov-10 22:33N 59°55' E 023°20'7 6.9
2014-Nov-10 21:33N 60°01' E 023°28'6 5.6
2014-Nov-10 20:30N 60°06' E 023°33'0 0.0
2014-Nov-10 19:12N 60°06' E 023°33'0 0.0
2014-Nov-10 18:33N 60°06' E 023°33'0 0.0
2014-Nov-10 17:24N 60°06' E 023°33'0 0.0
2014-Nov-10 16:18N 60°06' E 023°33'0 0.0
2014-Nov-10 15:18N 60°06' E 023°33'0 0.0
2014-Nov-10 10:24N 60°06' E 023°33'0 0.0
2014-Nov-10 09:24N 60°06' E 023°33'0 0.0
2014-Nov-10 08:33N 60°06' E 023°33'0 0.0
2014-Nov-10 05:12N 60°06' E 023°33'0 0.0
2014-Nov-10 04:27N 60°06' E 023°33'0 0.0
2014-Nov-10 02:09N 60°06' E 023°33'0 0.0
2014-Nov-10 01:30N 60°06' E 023°33'  
Track history (hours):
 
Tides and Currents Weather Stations Pressure Air Temp Water Temp Dewpoint Dewpoint Depression Visibility Wind Speed Wind Dir Waves Ship Positions

Lehmann Sound

Last reported at 2014-Nov-19 22:07 UTC. Time now 2014-Nov-23 17:17 UTC.
Position N 50°34' E 000°17'.

Length 90 m; draft 5.9 m.

Type: Cargo ship. MMSI: 305476000.

Date/timePositionNaut miles runAvg speedWind from/ knotsBaromVisibWave heightAir tempDewpointWater temp
2014-Nov-19 22:07N 50°34' E 000°17'810.3
2014-Nov-19 21:20N 50°36' E 000°29'7 9.3
2014-Nov-19 20:33N 50°39' E 000°40'9 9.3
2014-Nov-19 19:33N 50°45' E 000°51'2010.0
2014-Nov-19 17:33N 50°58' E 001°15'1211.9
2014-Nov-19 16:34N 51°06' E 001°29'1111.3
2014-Nov-19 15:33N 51°13' E 001°43'1010.4
2014-Nov-19 14:33N 51°21' E 001°53'9 9.4
2014-Nov-19 13:34N 51°29' E 002°02'9 8.8
2014-Nov-19 12:33N 51°35' E 002°11'12310.0
2014-Nov-19 00:13N 53°09' E 004°23'11 9.7
2014-Nov-18 23:04N 53°19' E 004°31'810.6
2014-Nov-18 22:21N 53°26' E 004°36'810.7
2014-Nov-18 21:33N 53°30' E 004°48'1111.4
2014-Nov-18 20:33N 53°34' E 005°06'1110.7
2014-Nov-18 19:33N 53°38' E 005°23'1010.0
2014-Nov-18 18:33N 53°41' E 005°39'9 9.3
2014-Nov-18 17:33N 53°44' E 005°53'5610.2
2014-Nov-18 12:04N 53°59' E 007°25'611.0
2014-Nov-18 11:33N 54°01' E 007°34'1111.1
2014-Nov-18 10:33N 54°01' E 007°53'1111.1
2014-Nov-18 09:33N 54°00' E 008°12'1010.5
2014-Nov-18 08:33N 53°59' E 008°29'8 8.4
2014-Nov-18 07:33N 53°54' E 008°42'7 7.2
2014-Nov-18 06:33N 53°50' E 008°52'9 8.7
2014-Nov-18 05:33N 53°53' E 009°06'2 2.1
2014-Nov-18 04:33N 53°54' E 009°09'1 1.2
2014-Nov-18 03:32N 53°55' E 009°11'0 0.0
2014-Nov-18 02:32N 53°55' E 009°11'4 3.9
2014-Nov-18 01:33N 53°58' E 009°15'14 6.5
2014-Nov-17 23:21N 54°10' E 009°27'7 8.2
2014-Nov-17 22:33N 54°14' E 009°36'7 7.0
2014-Nov-17 21:33N 54°19' E 009°43'8 7.5
2014-Nov-17 20:33N 54°21' E 009°56'8 7.5
2014-Nov-17 19:33N 54°22' E 010°09'1 1.2
2014-Nov-17 18:33N 54°22' E 010°11'9 9.3
2014-Nov-17 17:33N 54°30' E 010°19'41 9.4
2014-Nov-17 13:15N 54°31' E 011°28'7 9.9
2014-Nov-17 12:33N 54°28' E 011°39'10 9.7
2014-Nov-17 11:33N 54°26' E 011°55'87 9.6
2014-Nov-17 02:31N 55°07' E 014°08'1010.0
2014-Nov-17 01:29N 55°15' E 014°18'1010.2
2014-Nov-17 00:32N 55°23' E 014°28'1010.0
2014-Nov-16 23:33N 55°29' E 014°41'11 9.8
2014-Nov-16 22:27N 55°35' E 014°57'125 9.0
2014-Nov-16 08:32N 57°09' E 017°27'  
2014-Nov-11 07:25N 59°35' E 021°13'8 9.4
2014-Nov-11 06:33N 59°32' E 021°28'9 9.0
2014-Nov-11 05:30N 59°31' E 021°47'9 9.0
2014-Nov-11 04:32N 59°32' E 022°04'33 8.2
2014-Nov-11 00:33N 59°45' E 023°03'6 6.2
2014-Nov-10 23:33N 59°48' E 023°13'7 7.5
2014-Nov-10 22:33N 59°55' E 023°20'7 6.9
2014-Nov-10 21:33N 60°01' E 023°28'6 5.6
2014-Nov-10 20:30N 60°06' E 023°33'0 0.0
2014-Nov-10 19:12N 60°06' E 023°33'0 0.0
2014-Nov-10 18:33N 60°06' E 023°33'0 0.0
2014-Nov-10 17:24N 60°06' E 023°33'0 0.0
2014-Nov-10 16:18N 60°06' E 023°33'0 0.0
2014-Nov-10 15:18N 60°06' E 023°33'0 0.0
2014-Nov-10 10:24N 60°06' E 023°33'0 0.0
2014-Nov-10 09:24N 60°06' E 023°33'0 0.0
2014-Nov-10 08:33N 60°06' E 023°33'0 0.0
2014-Nov-10 05:12N 60°06' E 023°33'0 0.0
2014-Nov-10 04:27N 60°06' E 023°33'0 0.0
2014-Nov-10 02:09N 60°06' E 023°33'0 0.0
2014-Nov-10 01:30N 60°06' E 023°33'  

Dump ship's entire track history